sensor_id;sensor_type;location;lat;lon;timestamp;P1;durP1;ratioP1;P2;durP2;ratioP2
14125;SDS011;7141;49.484;11.242;2022-09-09T00:00:05;7.47;;;2.20;;
14125;SDS011;7141;49.484;11.242;2022-09-09T00:02:32;4.47;;;1.93;;
14125;SDS011;7141;49.484;11.242;2022-09-09T00:04:58;8.00;;;2.10;;
14125;SDS011;7141;49.484;11.242;2022-09-09T00:10:00;5.50;;;2.17;;
14125;SDS011;7141;49.484;11.242;2022-09-09T00:15:02;3.10;;;1.90;;
14125;SDS011;7141;49.484;11.242;2022-09-09T00:17:47;7.20;;;2.10;;
14125;SDS011;7141;49.484;11.242;2022-09-09T00:20:25;3.53;;;2.00;;
14125;SDS011;7141;49.484;11.242;2022-09-09T00:23:43;5.10;;;2.00;;
14125;SDS011;7141;49.484;11.242;2022-09-09T00:25:49;4.30;;;1.97;;
14125;SDS011;7141;49.484;11.242;2022-09-09T00:28:22;4.90;;;2.20;;
14125;SDS011;7141;49.484;11.242;2022-09-09T00:30:48;4.17;;;1.90;;
14125;SDS011;7141;49.484;11.242;2022-09-09T00:33:16;2.73;;;1.83;;
14125;SDS011;7141;49.484;11.242;2022-09-09T00:36:04;4.10;;;2.20;;
14125;SDS011;7141;49.484;11.242;2022-09-09T00:41:05;3.60;;;2.00;;
14125;SDS011;7141;49.484;11.242;2022-09-09T00:43:36;6.73;;;2.00;;
14125;SDS011;7141;49.484;11.242;2022-09-09T00:53:57;4.20;;;1.97;;
14125;SDS011;7141;49.484;11.242;2022-09-09T00:56:25;8.57;;;2.17;;
14125;SDS011;7141;49.484;11.242;2022-09-09T01:01:19;5.60;;;2.20;;
14125;SDS011;7141;49.484;11.242;2022-09-09T01:03:55;4.27;;;2.00;;
14125;SDS011;7141;49.484;11.242;2022-09-09T01:06:31;3.37;;;2.30;;
14125;SDS011;7141;49.484;11.242;2022-09-09T01:09:10;4.07;;;2.23;;
14125;SDS011;7141;49.484;11.242;2022-09-09T01:11:52;3.80;;;2.10;;
14125;SDS011;7141;49.484;11.242;2022-09-09T01:16:50;5.77;;;2.13;;
14125;SDS011;7141;49.484;11.242;2022-09-09T01:19:24;4.27;;;2.10;;
14125;SDS011;7141;49.484;11.242;2022-09-09T01:21:58;5.27;;;2.20;;
14125;SDS011;7141;49.484;11.242;2022-09-09T01:24:33;4.60;;;2.20;;
14125;SDS011;7141;49.484;11.242;2022-09-09T01:27:02;6.93;;;2.20;;
14125;SDS011;7141;49.484;11.242;2022-09-09T01:29:29;4.10;;;2.03;;
14125;SDS011;7141;49.484;11.242;2022-09-09T01:34:22;2.53;;;2.13;;
14125;SDS011;7141;49.484;11.242;2022-09-09T01:36:58;6.13;;;2.30;;
14125;SDS011;7141;49.484;11.242;2022-09-09T01:39:25;6.17;;;2.40;;
14125;SDS011;7141;49.484;11.242;2022-09-09T01:41:52;5.10;;;2.33;;
14125;SDS011;7141;49.484;11.242;2022-09-09T01:44:18;2.77;;;2.17;;
14125;SDS011;7141;49.484;11.242;2022-09-09T01:46:45;5.30;;;2.10;;
14125;SDS011;7141;49.484;11.242;2022-09-09T01:49:11;5.73;;;2.00;;
14125;SDS011;7141;49.484;11.242;2022-09-09T01:51:37;6.53;;;2.37;;
14125;SDS011;7141;49.484;11.242;2022-09-09T01:54:04;3.87;;;2.00;;
14125;SDS011;7141;49.484;11.242;2022-09-09T01:56:42;5.20;;;2.33;;
14125;SDS011;7141;49.484;11.242;2022-09-09T02:07:06;6.60;;;2.27;;
14125;SDS011;7141;49.484;11.242;2022-09-09T02:09:32;4.20;;;1.97;;
14125;SDS011;7141;49.484;11.242;2022-09-09T02:12:05;3.60;;;1.77;;
14125;SDS011;7141;49.484;11.242;2022-09-09T02:14:36;3.20;;;1.90;;
14125;SDS011;7141;49.484;11.242;2022-09-09T02:17:08;5.13;;;2.00;;
14125;SDS011;7141;49.484;11.242;2022-09-09T02:19:37;5.07;;;1.80;;
14125;SDS011;7141;49.484;11.242;2022-09-09T02:22:03;5.10;;;2.47;;
14125;SDS011;7141;49.484;11.242;2022-09-09T02:24:30;4.57;;;2.10;;
14125;SDS011;7141;49.484;11.242;2022-09-09T02:26:58;4.17;;;2.00;;
14125;SDS011;7141;49.484;11.242;2022-09-09T02:29:27;3.90;;;2.00;;
14125;SDS011;7141;49.484;11.242;2022-09-09T02:31:54;2.70;;;1.90;;
14125;SDS011;7141;49.484;11.242;2022-09-09T02:34:22;4.17;;;2.00;;
14125;SDS011;7141;49.484;11.242;2022-09-09T02:36:49;3.77;;;1.87;;
14125;SDS011;7141;49.484;11.242;2022-09-09T02:39:16;3.17;;;1.90;;
14125;SDS011;7141;49.484;11.242;2022-09-09T02:41:42;3.23;;;2.03;;
14125;SDS011;7141;49.484;11.242;2022-09-09T02:44:09;3.73;;;2.00;;
14125;SDS011;7141;49.484;11.242;2022-09-09T02:46:37;3.47;;;1.83;;
14125;SDS011;7141;49.484;11.242;2022-09-09T02:49:11;4.23;;;1.93;;
14125;SDS011;7141;49.484;11.242;2022-09-09T02:51:52;5.27;;;2.00;;
14125;SDS011;7141;49.484;11.242;2022-09-09T02:56:48;7.30;;;1.90;;
14125;SDS011;7141;49.484;11.242;2022-09-09T02:59:15;5.03;;;1.93;;
14125;SDS011;7141;49.484;11.242;2022-09-09T03:01:42;4.87;;;2.00;;
14125;SDS011;7141;49.484;11.242;2022-09-09T03:04:09;2.97;;;1.97;;
14125;SDS011;7141;49.484;11.242;2022-09-09T03:06:35;7.10;;;2.00;;
14125;SDS011;7141;49.484;11.242;2022-09-09T03:09:01;4.67;;;1.80;;
14125;SDS011;7141;49.484;11.242;2022-09-09T03:11:27;5.20;;;1.80;;
14125;SDS011;7141;49.484;11.242;2022-09-09T03:13:54;6.33;;;2.10;;
14125;SDS011;7141;49.484;11.242;2022-09-09T03:16:21;7.07;;;2.37;;
14125;SDS011;7141;49.484;11.242;2022-09-09T03:18:47;10.33;;;2.13;;
14125;SDS011;7141;49.484;11.242;2022-09-09T03:21:14;4.37;;;2.03;;
14125;SDS011;7141;49.484;11.242;2022-09-09T03:23:40;2.67;;;1.83;;
14125;SDS011;7141;49.484;11.242;2022-09-09T03:26:06;2.70;;;1.70;;
14125;SDS011;7141;49.484;11.242;2022-09-09T03:28:32;3.60;;;1.90;;
14125;SDS011;7141;49.484;11.242;2022-09-09T03:31:04;3.67;;;2.10;;
14125;SDS011;7141;49.484;11.242;2022-09-09T03:33:31;3.93;;;2.00;;
14125;SDS011;7141;49.484;11.242;2022-09-09T03:35:57;7.80;;;2.07;;
14125;SDS011;7141;49.484;11.242;2022-09-09T03:38:23;4.17;;;1.83;;
14125;SDS011;7141;49.484;11.242;2022-09-09T03:40:50;5.23;;;1.97;;
14125;SDS011;7141;49.484;11.242;2022-09-09T03:43:16;4.47;;;2.30;;
14125;SDS011;7141;49.484;11.242;2022-09-09T03:45:45;8.27;;;2.37;;
14125;SDS011;7141;49.484;11.242;2022-09-09T03:48:12;4.17;;;2.23;;
14125;SDS011;7141;49.484;11.242;2022-09-09T03:50:38;2.40;;;1.90;;
14125;SDS011;7141;49.484;11.242;2022-09-09T03:53:04;4.30;;;1.90;;
14125;SDS011;7141;49.484;11.242;2022-09-09T03:55:31;4.73;;;2.40;;
14125;SDS011;7141;49.484;11.242;2022-09-09T03:57:57;5.77;;;2.60;;
14125;SDS011;7141;49.484;11.242;2022-09-09T04:00:25;6.80;;;2.40;;
14125;SDS011;7141;49.484;11.242;2022-09-09T04:02:51;6.40;;;2.00;;
14125;SDS011;7141;49.484;11.242;2022-09-09T04:05:22;4.63;;;2.13;;
14125;SDS011;7141;49.484;11.242;2022-09-09T04:07:48;3.00;;;2.10;;
14125;SDS011;7141;49.484;11.242;2022-09-09T04:10:16;3.40;;;2.10;;
14125;SDS011;7141;49.484;11.242;2022-09-09T04:12:42;8.60;;;2.50;;
14125;SDS011;7141;49.484;11.242;2022-09-09T04:15:08;4.63;;;2.50;;
14125;SDS011;7141;49.484;11.242;2022-09-09T04:17:35;6.40;;;2.83;;
14125;SDS011;7141;49.484;11.242;2022-09-09T04:20:02;2.90;;;2.10;;
14125;SDS011;7141;49.484;11.242;2022-09-09T04:22:28;3.90;;;2.10;;
14125;SDS011;7141;49.484;11.242;2022-09-09T04:24:54;4.63;;;2.10;;
14125;SDS011;7141;49.484;11.242;2022-09-09T04:27:20;8.90;;;2.47;;
14125;SDS011;7141;49.484;11.242;2022-09-09T04:29:46;4.43;;;2.40;;
14125;SDS011;7141;49.484;11.242;2022-09-09T04:32:12;4.47;;;2.20;;
14125;SDS011;7141;49.484;11.242;2022-09-09T04:34:38;9.73;;;2.50;;
14125;SDS011;7141;49.484;11.242;2022-09-09T04:37:06;3.00;;;2.00;;
14125;SDS011;7141;49.484;11.242;2022-09-09T04:39:32;5.37;;;2.50;;
14125;SDS011;7141;49.484;11.242;2022-09-09T04:41:58;3.43;;;2.30;;
14125;SDS011;7141;49.484;11.242;2022-09-09T04:44:24;5.77;;;2.50;;
14125;SDS011;7141;49.484;11.242;2022-09-09T04:46:50;9.80;;;2.53;;
14125;SDS011;7141;49.484;11.242;2022-09-09T04:49:16;4.73;;;2.37;;
14125;SDS011;7141;49.484;11.242;2022-09-09T04:51:42;3.20;;;2.50;;
14125;SDS011;7141;49.484;11.242;2022-09-09T04:54:08;3.50;;;2.37;;
14125;SDS011;7141;49.484;11.242;2022-09-09T04:56:35;3.70;;;2.20;;
14125;SDS011;7141;49.484;11.242;2022-09-09T04:59:01;4.17;;;2.70;;
14125;SDS011;7141;49.484;11.242;2022-09-09T05:01:28;6.13;;;2.57;;
14125;SDS011;7141;49.484;11.242;2022-09-09T05:03:54;3.37;;;2.53;;
14125;SDS011;7141;49.484;11.242;2022-09-09T05:06:20;6.13;;;2.40;;
14125;SDS011;7141;49.484;11.242;2022-09-09T05:08:47;5.37;;;2.63;;
14125;SDS011;7141;49.484;11.242;2022-09-09T05:11:21;6.57;;;2.60;;
14125;SDS011;7141;49.484;11.242;2022-09-09T05:13:51;5.80;;;2.30;;
14125;SDS011;7141;49.484;11.242;2022-09-09T05:16:17;4.10;;;2.60;;
14125;SDS011;7141;49.484;11.242;2022-09-09T05:18:43;8.27;;;2.60;;
14125;SDS011;7141;49.484;11.242;2022-09-09T05:21:11;5.47;;;2.30;;
14125;SDS011;7141;49.484;11.242;2022-09-09T05:23:37;5.10;;;2.20;;
14125;SDS011;7141;49.484;11.242;2022-09-09T05:26:03;4.40;;;2.50;;
14125;SDS011;7141;49.484;11.242;2022-09-09T05:28:30;2.30;;;2.03;;
14125;SDS011;7141;49.484;11.242;2022-09-09T05:30:59;3.57;;;2.17;;
14125;SDS011;7141;49.484;11.242;2022-09-09T05:33:28;4.77;;;2.20;;
14125;SDS011;7141;49.484;11.242;2022-09-09T05:35:55;3.53;;;2.00;;
14125;SDS011;7141;49.484;11.242;2022-09-09T05:38:21;3.40;;;2.20;;
14125;SDS011;7141;49.484;11.242;2022-09-09T05:40:50;5.57;;;2.33;;
14125;SDS011;7141;49.484;11.242;2022-09-09T05:43:17;4.13;;;2.13;;
14125;SDS011;7141;49.484;11.242;2022-09-09T05:45:43;4.20;;;2.13;;
14125;SDS011;7141;49.484;11.242;2022-09-09T05:48:09;4.33;;;2.00;;
14125;SDS011;7141;49.484;11.242;2022-09-09T05:50:35;6.40;;;2.20;;
14125;SDS011;7141;49.484;11.242;2022-09-09T05:53:01;4.27;;;2.20;;
14125;SDS011;7141;49.484;11.242;2022-09-09T05:55:28;3.43;;;2.40;;
14125;SDS011;7141;49.484;11.242;2022-09-09T05:57:54;6.10;;;2.53;;
14125;SDS011;7141;49.484;11.242;2022-09-09T06:00:20;4.03;;;2.30;;
14125;SDS011;7141;49.484;11.242;2022-09-09T06:02:50;3.47;;;2.37;;
14125;SDS011;7141;49.484;11.242;2022-09-09T06:05:17;6.83;;;2.37;;
14125;SDS011;7141;49.484;11.242;2022-09-09T06:07:43;3.80;;;2.23;;
14125;SDS011;7141;49.484;11.242;2022-09-09T06:10:09;4.13;;;2.10;;
14125;SDS011;7141;49.484;11.242;2022-09-09T06:12:38;4.43;;;2.40;;
14125;SDS011;7141;49.484;11.242;2022-09-09T06:15:04;5.97;;;2.50;;
14125;SDS011;7141;49.484;11.242;2022-09-09T06:17:30;5.47;;;2.33;;
14125;SDS011;7141;49.484;11.242;2022-09-09T06:19:56;4.20;;;2.23;;
14125;SDS011;7141;49.484;11.242;2022-09-09T06:22:22;6.90;;;2.90;;
14125;SDS011;7141;49.484;11.242;2022-09-09T06:24:48;4.63;;;2.20;;
14125;SDS011;7141;49.484;11.242;2022-09-09T06:27:15;9.87;;;3.03;;
14125;SDS011;7141;49.484;11.242;2022-09-09T06:29:41;4.43;;;2.47;;
14125;SDS011;7141;49.484;11.242;2022-09-09T06:32:07;7.27;;;2.70;;
14125;SDS011;7141;49.484;11.242;2022-09-09T06:34:34;4.63;;;2.30;;
14125;SDS011;7141;49.484;11.242;2022-09-09T06:37:01;5.20;;;2.50;;
14125;SDS011;7141;49.484;11.242;2022-09-09T06:39:27;2.73;;;1.87;;
14125;SDS011;7141;49.484;11.242;2022-09-09T06:41:53;3.77;;;1.60;;
14125;SDS011;7141;49.484;11.242;2022-09-09T06:44:19;4.17;;;1.77;;
14125;SDS011;7141;49.484;11.242;2022-09-09T06:46:45;4.63;;;2.00;;
14125;SDS011;7141;49.484;11.242;2022-09-09T06:49:14;6.73;;;1.73;;
14125;SDS011;7141;49.484;11.242;2022-09-09T06:51:40;3.47;;;1.83;;
14125;SDS011;7141;49.484;11.242;2022-09-09T06:54:08;4.17;;;1.90;;
14125;SDS011;7141;49.484;11.242;2022-09-09T06:56:37;4.67;;;1.70;;
14125;SDS011;7141;49.484;11.242;2022-09-09T06:59:05;3.33;;;1.63;;
14125;SDS011;7141;49.484;11.242;2022-09-09T07:01:34;3.80;;;1.70;;
14125;SDS011;7141;49.484;11.242;2022-09-09T07:04:00;4.97;;;1.60;;
14125;SDS011;7141;49.484;11.242;2022-09-09T07:06:28;5.47;;;2.00;;
14125;SDS011;7141;49.484;11.242;2022-09-09T07:08:58;5.60;;;1.70;;
14125;SDS011;7141;49.484;11.242;2022-09-09T07:11:25;4.17;;;1.80;;
14125;SDS011;7141;49.484;11.242;2022-09-09T07:13:52;3.30;;;1.63;;
14125;SDS011;7141;49.484;11.242;2022-09-09T07:16:18;2.97;;;1.37;;
14125;SDS011;7141;49.484;11.242;2022-09-09T07:18:45;3.50;;;1.33;;
14125;SDS011;7141;49.484;11.242;2022-09-09T07:21:11;4.30;;;1.50;;
14125;SDS011;7141;49.484;11.242;2022-09-09T07:23:38;4.97;;;1.53;;
14125;SDS011;7141;49.484;11.242;2022-09-09T07:26:11;2.20;;;1.40;;
14125;SDS011;7141;49.484;11.242;2022-09-09T07:28:39;6.67;;;1.77;;
14125;SDS011;7141;49.484;11.242;2022-09-09T07:31:06;4.10;;;1.40;;
14125;SDS011;7141;49.484;11.242;2022-09-09T07:33:33;4.57;;;1.73;;
14125;SDS011;7141;49.484;11.242;2022-09-09T07:36:09;4.67;;;1.57;;
14125;SDS011;7141;49.484;11.242;2022-09-09T07:38:39;3.53;;;1.57;;
14125;SDS011;7141;49.484;11.242;2022-09-09T07:41:06;4.93;;;1.60;;
14125;SDS011;7141;49.484;11.242;2022-09-09T07:43:37;4.77;;;1.67;;
14125;SDS011;7141;49.484;11.242;2022-09-09T07:46:03;4.83;;;1.43;;
14125;SDS011;7141;49.484;11.242;2022-09-09T07:48:29;5.10;;;1.20;;
14125;SDS011;7141;49.484;11.242;2022-09-09T07:51:08;4.30;;;1.50;;
14125;SDS011;7141;49.484;11.242;2022-09-09T07:53:35;4.30;;;1.67;;
14125;SDS011;7141;49.484;11.242;2022-09-09T07:56:03;3.10;;;1.60;;
14125;SDS011;7141;49.484;11.242;2022-09-09T07:58:29;6.23;;;1.50;;
14125;SDS011;7141;49.484;11.242;2022-09-09T08:00:55;2.43;;;1.47;;
14125;SDS011;7141;49.484;11.242;2022-09-09T08:03:22;2.90;;;1.50;;
14125;SDS011;7141;49.484;11.242;2022-09-09T08:05:48;4.70;;;1.63;;
14125;SDS011;7141;49.484;11.242;2022-09-09T08:08:14;2.30;;;1.40;;
14125;SDS011;7141;49.484;11.242;2022-09-09T08:10:42;5.43;;;1.43;;
14125;SDS011;7141;49.484;11.242;2022-09-09T08:13:08;4.03;;;1.60;;
14125;SDS011;7141;49.484;11.242;2022-09-09T08:15:34;2.67;;;1.47;;
14125;SDS011;7141;49.484;11.242;2022-09-09T08:18:00;4.53;;;1.70;;
14125;SDS011;7141;49.484;11.242;2022-09-09T08:20:28;3.97;;;1.47;;
14125;SDS011;7141;49.484;11.242;2022-09-09T08:22:55;3.60;;;1.40;;
14125;SDS011;7141;49.484;11.242;2022-09-09T08:25:21;6.00;;;1.60;;
14125;SDS011;7141;49.484;11.242;2022-09-09T08:27:47;4.63;;;1.50;;
14125;SDS011;7141;49.484;11.242;2022-09-09T08:30:13;5.23;;;1.47;;
14125;SDS011;7141;49.484;11.242;2022-09-09T08:32:39;4.13;;;1.40;;
14125;SDS011;7141;49.484;11.242;2022-09-09T08:35:06;5.77;;;1.60;;
14125;SDS011;7141;49.484;11.242;2022-09-09T08:37:32;5.40;;;1.60;;
14125;SDS011;7141;49.484;11.242;2022-09-09T08:39:58;7.80;;;1.60;;
14125;SDS011;7141;49.484;11.242;2022-09-09T08:42:35;3.93;;;1.63;;
14125;SDS011;7141;49.484;11.242;2022-09-09T08:50:34;6.00;;;1.50;;
14125;SDS011;7141;49.484;11.242;2022-09-09T08:57:59;4.47;;;1.80;;
14125;SDS011;7141;49.484;11.242;2022-09-09T09:00:30;8.87;;;1.97;;
14125;SDS011;7141;49.484;11.242;2022-09-09T09:03:05;3.10;;;1.53;;
14125;SDS011;7141;49.484;11.242;2022-09-09T09:08:36;3.30;;;1.57;;
14125;SDS011;7141;49.484;11.242;2022-09-09T09:11:03;5.40;;;1.80;;
14125;SDS011;7141;49.484;11.242;2022-09-09T09:13:34;3.90;;;1.50;;
14125;SDS011;7141;49.484;11.242;2022-09-09T09:18:48;4.00;;;1.60;;
14125;SDS011;7141;49.484;11.242;2022-09-09T09:23:48;4.50;;;1.50;;
14125;SDS011;7141;49.484;11.242;2022-09-09T09:26:17;3.27;;;1.20;;
14125;SDS011;7141;49.484;11.242;2022-09-09T09:28:43;5.43;;;1.70;;
14125;SDS011;7141;49.484;11.242;2022-09-09T09:31:10;5.73;;;1.57;;
14125;SDS011;7141;49.484;11.242;2022-09-09T09:36:02;3.50;;;1.40;;
14125;SDS011;7141;49.484;11.242;2022-09-09T09:38:33;2.50;;;1.27;;
14125;SDS011;7141;49.484;11.242;2022-09-09T09:41:00;8.10;;;3.50;;
14125;SDS011;7141;49.484;11.242;2022-09-09T09:43:26;4.07;;;1.50;;
14125;SDS011;7141;49.484;11.242;2022-09-09T09:45:53;4.33;;;1.40;;
14125;SDS011;7141;49.484;11.242;2022-09-09T09:48:20;4.20;;;1.60;;
14125;SDS011;7141;49.484;11.242;2022-09-09T09:51:08;4.30;;;1.30;;
14125;SDS011;7141;49.484;11.242;2022-09-09T09:53:33;2.47;;;1.10;;
14125;SDS011;7141;49.484;11.242;2022-09-09T10:01:03;6.07;;;1.70;;
14125;SDS011;7141;49.484;11.242;2022-09-09T10:03:33;3.80;;;1.40;;
14125;SDS011;7141;49.484;11.242;2022-09-09T10:06:04;4.10;;;1.70;;
14125;SDS011;7141;49.484;11.242;2022-09-09T10:08:33;6.17;;;1.50;;
14125;SDS011;7141;49.484;11.242;2022-09-09T10:16:10;4.93;;;1.37;;
14125;SDS011;7141;49.484;11.242;2022-09-09T10:29:10;2.43;;;1.10;;
14125;SDS011;7141;49.484;11.242;2022-09-09T10:31:58;5.23;;;1.60;;
14125;SDS011;7141;49.484;11.242;2022-09-09T10:36:57;3.70;;;1.20;;
14125;SDS011;7141;49.484;11.242;2022-09-09T10:39:36;2.77;;;1.10;;
14125;SDS011;7141;49.484;11.242;2022-09-09T10:42:09;4.83;;;1.20;;
14125;SDS011;7141;49.484;11.242;2022-09-09T10:44:56;5.00;;;1.07;;
14125;SDS011;7141;49.484;11.242;2022-09-09T10:48:15;3.23;;;1.93;;
14125;SDS011;7141;49.484;11.242;2022-09-09T10:50:28;4.00;;;1.57;;
14125;SDS011;7141;49.484;11.242;2022-09-09T10:53:00;3.50;;;1.70;;
14125;SDS011;7141;49.484;11.242;2022-09-09T10:55:33;3.60;;;1.47;;
14125;SDS011;7141;49.484;11.242;2022-09-09T10:58:02;3.93;;;2.07;;
14125;SDS011;7141;49.484;11.242;2022-09-09T11:00:39;5.33;;;2.27;;
14125;SDS011;7141;49.484;11.242;2022-09-09T11:03:10;3.97;;;1.90;;
14125;SDS011;7141;49.484;11.242;2022-09-09T11:05:43;5.03;;;1.87;;
14125;SDS011;7141;49.484;11.242;2022-09-09T11:08:12;2.27;;;1.40;;
14125;SDS011;7141;49.484;11.242;2022-09-09T11:13:26;2.60;;;1.43;;
14125;SDS011;7141;49.484;11.242;2022-09-09T11:16:01;2.43;;;1.37;;
14125;SDS011;7141;49.484;11.242;2022-09-09T11:18:30;3.50;;;1.27;;
14125;SDS011;7141;49.484;11.242;2022-09-09T11:20:58;1.83;;;1.20;;
14125;SDS011;7141;49.484;11.242;2022-09-09T11:23:27;2.63;;;1.20;;
14125;SDS011;7141;49.484;11.242;2022-09-09T11:25:57;2.93;;;1.20;;
14125;SDS011;7141;49.484;11.242;2022-09-09T11:31:17;2.13;;;1.00;;
14125;SDS011;7141;49.484;11.242;2022-09-09T11:38:52;2.60;;;1.40;;
14125;SDS011;7141;49.484;11.242;2022-09-09T11:41:19;6.93;;;3.43;;
14125;SDS011;7141;49.484;11.242;2022-09-09T11:43:50;6.03;;;2.13;;
14125;SDS011;7141;49.484;11.242;2022-09-09T11:46:17;5.83;;;1.70;;
14125;SDS011;7141;49.484;11.242;2022-09-09T11:48:45;2.50;;;1.23;;
14125;SDS011;7141;49.484;11.242;2022-09-09T11:51:13;5.20;;;1.53;;
14125;SDS011;7141;49.484;11.242;2022-09-09T11:53:54;4.13;;;1.30;;
14125;SDS011;7141;49.484;11.242;2022-09-09T11:58:57;5.23;;;1.30;;
14125;SDS011;7141;49.484;11.242;2022-09-09T12:04:05;3.13;;;1.20;;
14125;SDS011;7141;49.484;11.242;2022-09-09T12:06:33;3.45;;;1.60;;
14125;SDS011;7141;49.484;11.242;2022-09-09T12:09:17;3.07;;;1.03;;
14125;SDS011;7141;49.484;11.242;2022-09-09T12:11:44;2.67;;;1.20;;
14125;SDS011;7141;49.484;11.242;2022-09-09T12:14:20;2.93;;;1.20;;
14125;SDS011;7141;49.484;11.242;2022-09-09T12:16:46;4.63;;;1.23;;
14125;SDS011;7141;49.484;11.242;2022-09-09T12:19:18;3.30;;;1.13;;
14125;SDS011;7141;49.484;11.242;2022-09-09T12:21:46;2.47;;;1.50;;
14125;SDS011;7141;49.484;11.242;2022-09-09T12:24:59;1.97;;;1.10;;
14125;SDS011;7141;49.484;11.242;2022-09-09T12:29:39;3.03;;;1.50;;
14125;SDS011;7141;49.484;11.242;2022-09-09T12:32:10;4.47;;;1.40;;
14125;SDS011;7141;49.484;11.242;2022-09-09T12:34:38;3.13;;;1.57;;
14125;SDS011;7141;49.484;11.242;2022-09-09T12:37:50;2.20;;;1.20;;
14125;SDS011;7141;49.484;11.242;2022-09-09T12:39:55;3.17;;;1.17;;
14125;SDS011;7141;49.484;11.242;2022-09-09T12:42:21;3.70;;;1.17;;
14125;SDS011;7141;49.484;11.242;2022-09-09T12:44:55;2.67;;;1.03;;
14125;SDS011;7141;49.484;11.242;2022-09-09T12:47:22;3.87;;;1.13;;
14125;SDS011;7141;49.484;11.242;2022-09-09T12:49:50;2.57;;;1.33;;
14125;SDS011;7141;49.484;11.242;2022-09-09T12:54:44;2.97;;;1.03;;
14125;SDS011;7141;49.484;11.242;2022-09-09T12:57:11;3.80;;;1.00;;
14125;SDS011;7141;49.484;11.242;2022-09-09T12:59:38;4.40;;;0.93;;
14125;SDS011;7141;49.484;11.242;2022-09-09T13:02:11;2.03;;;1.10;;
14125;SDS011;7141;49.484;11.242;2022-09-09T13:04:42;1.70;;;1.10;;
14125;SDS011;7141;49.484;11.242;2022-09-09T13:07:09;2.87;;;1.00;;
14125;SDS011;7141;49.484;11.242;2022-09-09T13:09:36;3.50;;;1.07;;
14125;SDS011;7141;49.484;11.242;2022-09-09T13:12:02;2.50;;;1.20;;
14125;SDS011;7141;49.484;11.242;2022-09-09T13:14:34;2.73;;;1.07;;
14125;SDS011;7141;49.484;11.242;2022-09-09T13:17:05;5.90;;;1.20;;
14125;SDS011;7141;49.484;11.242;2022-09-09T13:19:35;3.10;;;1.20;;
14125;SDS011;7141;49.484;11.242;2022-09-09T13:22:12;3.60;;;1.30;;
14125;SDS011;7141;49.484;11.242;2022-09-09T13:24:38;2.93;;;1.00;;
14125;SDS011;7141;49.484;11.242;2022-09-09T13:27:05;2.93;;;1.17;;
14125;SDS011;7141;49.484;11.242;2022-09-09T13:29:50;3.47;;;1.20;;
14125;SDS011;7141;49.484;11.242;2022-09-09T13:32:20;4.53;;;1.43;;
14125;SDS011;7141;49.484;11.242;2022-09-09T13:34:50;4.53;;;1.43;;
14125;SDS011;7141;49.484;11.242;2022-09-09T13:37:36;4.60;;;1.30;;
14125;SDS011;7141;49.484;11.242;2022-09-09T13:40:03;4.50;;;1.27;;
14125;SDS011;7141;49.484;11.242;2022-09-09T13:42:31;3.03;;;1.10;;
14125;SDS011;7141;49.484;11.242;2022-09-09T13:45:00;3.47;;;0.90;;
14125;SDS011;7141;49.484;11.242;2022-09-09T13:47:31;6.17;;;1.33;;
14125;SDS011;7141;49.484;11.242;2022-09-09T13:49:58;3.77;;;1.03;;
14125;SDS011;7141;49.484;11.242;2022-09-09T13:52:24;2.63;;;1.00;;
14125;SDS011;7141;49.484;11.242;2022-09-09T13:54:52;5.17;;;3.23;;
14125;SDS011;7141;49.484;11.242;2022-09-09T13:57:23;2.00;;;1.17;;
14125;SDS011;7141;49.484;11.242;2022-09-09T13:59:50;4.70;;;1.40;;
14125;SDS011;7141;49.484;11.242;2022-09-09T14:02:16;5.33;;;1.30;;
14125;SDS011;7141;49.484;11.242;2022-09-09T14:04:42;2.63;;;1.20;;
14125;SDS011;7141;49.484;11.242;2022-09-09T14:07:10;3.77;;;1.10;;
14125;SDS011;7141;49.484;11.242;2022-09-09T14:09:37;5.60;;;1.40;;
14125;SDS011;7141;49.484;11.242;2022-09-09T14:12:03;1.97;;;0.80;;
14125;SDS011;7141;49.484;11.242;2022-09-09T14:14:29;1.77;;;0.83;;
14125;SDS011;7141;49.484;11.242;2022-09-09T14:16:55;2.27;;;1.07;;
14125;SDS011;7141;49.484;11.242;2022-09-09T14:19:21;2.53;;;1.10;;
14125;SDS011;7141;49.484;11.242;2022-09-09T14:21:47;6.10;;;1.30;;
14125;SDS011;7141;49.484;11.242;2022-09-09T14:24:13;4.87;;;1.13;;
14125;SDS011;7141;49.484;11.242;2022-09-09T14:26:39;2.97;;;1.00;;
14125;SDS011;7141;49.484;11.242;2022-09-09T14:29:05;2.53;;;1.00;;
14125;SDS011;7141;49.484;11.242;2022-09-09T14:31:32;3.07;;;1.20;;
14125;SDS011;7141;49.484;11.242;2022-09-09T14:33:58;3.53;;;1.20;;
14125;SDS011;7141;49.484;11.242;2022-09-09T14:36:24;4.07;;;1.33;;
14125;SDS011;7141;49.484;11.242;2022-09-09T14:38:50;3.27;;;1.23;;
14125;SDS011;7141;49.484;11.242;2022-09-09T14:41:17;4.40;;;1.50;;
14125;SDS011;7141;49.484;11.242;2022-09-09T14:43:43;6.87;;;1.40;;
14125;SDS011;7141;49.484;11.242;2022-09-09T14:46:11;5.87;;;1.20;;
14125;SDS011;7141;49.484;11.242;2022-09-09T14:48:38;2.70;;;1.23;;
14125;SDS011;7141;49.484;11.242;2022-09-09T14:51:11;3.73;;;1.30;;
14125;SDS011;7141;49.484;11.242;2022-09-09T14:53:37;4.53;;;1.30;;
14125;SDS011;7141;49.484;11.242;2022-09-09T14:56:07;3.40;;;1.30;;
14125;SDS011;7141;49.484;11.242;2022-09-09T14:58:34;4.67;;;1.43;;
14125;SDS011;7141;49.484;11.242;2022-09-09T15:01:04;4.43;;;0.83;;
14125;SDS011;7141;49.484;11.242;2022-09-09T15:03:30;2.10;;;1.20;;
14125;SDS011;7141;49.484;11.242;2022-09-09T15:05:56;2.90;;;1.40;;
14125;SDS011;7141;49.484;11.242;2022-09-09T15:08:23;5.00;;;1.50;;
14125;SDS011;7141;49.484;11.242;2022-09-09T15:10:49;4.23;;;1.47;;
14125;SDS011;7141;49.484;11.242;2022-09-09T15:13:15;6.50;;;1.70;;
14125;SDS011;7141;49.484;11.242;2022-09-09T15:15:45;3.50;;;1.20;;
14125;SDS011;7141;49.484;11.242;2022-09-09T15:18:10;4.40;;;1.70;;
14125;SDS011;7141;49.484;11.242;2022-09-09T15:20:37;8.13;;;1.87;;
14125;SDS011;7141;49.484;11.242;2022-09-09T15:23:03;8.13;;;2.03;;
14125;SDS011;7141;49.484;11.242;2022-09-09T15:25:30;7.03;;;2.43;;
14125;SDS011;7141;49.484;11.242;2022-09-09T15:27:57;6.97;;;1.63;;
14125;SDS011;7141;49.484;11.242;2022-09-09T15:30:23;4.27;;;2.00;;
14125;SDS011;7141;49.484;11.242;2022-09-09T15:32:49;7.63;;;2.30;;
14125;SDS011;7141;49.484;11.242;2022-09-09T15:35:15;6.07;;;1.80;;
14125;SDS011;7141;49.484;11.242;2022-09-09T15:37:41;4.10;;;1.60;;
14125;SDS011;7141;49.484;11.242;2022-09-09T15:40:07;7.17;;;2.07;;
14125;SDS011;7141;49.484;11.242;2022-09-09T15:42:34;3.47;;;1.70;;
14125;SDS011;7141;49.484;11.242;2022-09-09T15:45:00;3.97;;;1.90;;
14125;SDS011;7141;49.484;11.242;2022-09-09T15:47:26;4.17;;;1.50;;
14125;SDS011;7141;49.484;11.242;2022-09-09T15:49:52;4.07;;;1.70;;
14125;SDS011;7141;49.484;11.242;2022-09-09T15:52:18;7.23;;;2.30;;
14125;SDS011;7141;49.484;11.242;2022-09-09T15:54:44;4.27;;;1.53;;
14125;SDS011;7141;49.484;11.242;2022-09-09T15:57:11;2.40;;;1.37;;
14125;SDS011;7141;49.484;11.242;2022-09-09T15:59:37;4.10;;;1.67;;
14125;SDS011;7141;49.484;11.242;2022-09-09T16:02:03;2.77;;;1.03;;
14125;SDS011;7141;49.484;11.242;2022-09-09T16:04:30;5.93;;;1.43;;
14125;SDS011;7141;49.484;11.242;2022-09-09T16:07:05;5.53;;;1.77;;
14125;SDS011;7141;49.484;11.242;2022-09-09T16:09:31;6.20;;;1.53;;
14125;SDS011;7141;49.484;11.242;2022-09-09T16:11:58;4.43;;;1.70;;
14125;SDS011;7141;49.484;11.242;2022-09-09T16:14:25;4.53;;;1.63;;
14125;SDS011;7141;49.484;11.242;2022-09-09T16:16:52;3.83;;;1.60;;
14125;SDS011;7141;49.484;11.242;2022-09-09T16:19:18;3.77;;;1.50;;
14125;SDS011;7141;49.484;11.242;2022-09-09T16:21:45;5.70;;;1.67;;
14125;SDS011;7141;49.484;11.242;2022-09-09T16:24:13;2.73;;;1.30;;
14125;SDS011;7141;49.484;11.242;2022-09-09T16:26:41;4.33;;;1.37;;
14125;SDS011;7141;49.484;11.242;2022-09-09T16:29:09;3.90;;;1.37;;
14125;SDS011;7141;49.484;11.242;2022-09-09T16:31:35;3.00;;;1.27;;
14125;SDS011;7141;49.484;11.242;2022-09-09T16:34:01;2.50;;;1.30;;